Terminal Aerodrome Forecast
Issued by NWS

Home | Current Version | Previous Version | Text Only | Print | Product List | Glossary On
Versions: 1 2 3 4 5 6 7 8 9 10 11 12 13 14 15 16 17 18 19 20 21
000
FTUS42 KKEY 270902 AAA
TAFMTH
TAF AMD
KMTH 270902Z 2709/2806 22006KT P6SM FEW020 SCT100
     FM271200 23007KT P6SM SCT020 BKN100
     FM271800 24010G16KT P6SM SCT020 SCT060 OVC100
     FM272300 29011G20KT P6SM VCTS SCT020CB BKN060 OVC100 PROB30
      2723/2805 30015G28KT 2SM SHRA BKN020 OVC060=

USA.gov is the U.S. government's official web portal to all federal, state and local government web resources and services.